sensor_id;sensor_type;location;lat;lon;timestamp;temperature;humidity
29551;DHT22;16488;52.396;10.696;2023-06-14T00:00:51;16.10;83.00
29551;DHT22;16488;52.396;10.696;2023-06-14T00:03:18;16.20;82.90
29551;DHT22;16488;52.396;10.696;2023-06-14T00:05:47;16.10;82.70
29551;DHT22;16488;52.396;10.696;2023-06-14T00:08:13;16.00;83.00
29551;DHT22;16488;52.396;10.696;2023-06-14T00:10:40;16.00;83.50
29551;DHT22;16488;52.396;10.696;2023-06-14T00:13:07;16.00;83.60
29551;DHT22;16488;52.396;10.696;2023-06-14T00:15:34;16.00;83.60
29551;DHT22;16488;52.396;10.696;2023-06-14T00:17:59;15.80;84.40
29551;DHT22;16488;52.396;10.696;2023-06-14T00:20:29;15.90;84.60
29551;DHT22;16488;52.396;10.696;2023-06-14T00:22:56;15.90;84.70
29551;DHT22;16488;52.396;10.696;2023-06-14T00:25:24;16.00;84.60
29551;DHT22;16488;52.396;10.696;2023-06-14T00:27:51;15.90;84.30
29551;DHT22;16488;52.396;10.696;2023-06-14T00:30:17;15.90;84.90
29551;DHT22;16488;52.396;10.696;2023-06-14T00:32:43;15.90;85.00
29551;DHT22;16488;52.396;10.696;2023-06-14T00:35:09;15.80;85.60
29551;DHT22;16488;52.396;10.696;2023-06-14T00:37:35;15.80;85.50
29551;DHT22;16488;52.396;10.696;2023-06-14T00:40:01;15.70;85.90
29551;DHT22;16488;52.396;10.696;2023-06-14T00:42:27;15.60;86.40
29551;DHT22;16488;52.396;10.696;2023-06-14T00:44:53;15.60;86.90
29551;DHT22;16488;52.396;10.696;2023-06-14T00:47:19;15.60;86.90
29551;DHT22;16488;52.396;10.696;2023-06-14T00:49:51;15.60;86.80
29551;DHT22;16488;52.396;10.696;2023-06-14T00:52:18;15.60;86.80
29551;DHT22;16488;52.396;10.696;2023-06-14T00:54:44;15.70;87.00
29551;DHT22;16488;52.396;10.696;2023-06-14T00:57:11;15.60;87.00
29551;DHT22;16488;52.396;10.696;2023-06-14T00:59:48;15.60;87.50
29551;DHT22;16488;52.396;10.696;2023-06-14T01:02:14;15.50;87.40
29551;DHT22;16488;52.396;10.696;2023-06-14T01:04:48;15.50;87.80
29551;DHT22;16488;52.396;10.696;2023-06-14T01:10:40;15.50;87.70
29551;DHT22;16488;52.396;10.696;2023-06-14T01:13:12;15.50;87.80
29551;DHT22;16488;52.396;10.696;2023-06-14T01:15:39;15.40;88.00
29551;DHT22;16488;52.396;10.696;2023-06-14T01:18:05;15.30;88.80
29551;DHT22;16488;52.396;10.696;2023-06-14T01:20:32;15.20;89.10
29551;DHT22;16488;52.396;10.696;2023-06-14T01:22:58;15.20;89.30
29551;DHT22;16488;52.396;10.696;2023-06-14T01:25:24;15.10;89.80
29551;DHT22;16488;52.396;10.696;2023-06-14T01:27:56;15.10;89.90
29551;DHT22;16488;52.396;10.696;2023-06-14T01:30:23;15.10;89.50
29551;DHT22;16488;52.396;10.696;2023-06-14T01:32:52;15.10;90.10
29551;DHT22;16488;52.396;10.696;2023-06-14T01:35:18;15.10;90.10
29551;DHT22;16488;52.396;10.696;2023-06-14T01:37:46;15.10;90.20
29551;DHT22;16488;52.396;10.696;2023-06-14T01:40:14;15.00;90.40
29551;DHT22;16488;52.396;10.696;2023-06-14T01:42:41;15.00;90.30
29551;DHT22;16488;52.396;10.696;2023-06-14T01:45:08;15.00;90.60
29551;DHT22;16488;52.396;10.696;2023-06-14T01:47:35;14.90;90.70
29551;DHT22;16488;52.396;10.696;2023-06-14T01:50:04;14.80;91.00
29551;DHT22;16488;52.396;10.696;2023-06-14T01:52:33;14.70;91.00
29551;DHT22;16488;52.396;10.696;2023-06-14T01:54:59;14.70;91.40
29551;DHT22;16488;52.396;10.696;2023-06-14T01:57:27;14.60;91.60
29551;DHT22;16488;52.396;10.696;2023-06-14T01:59:53;14.60;91.60
29551;DHT22;16488;52.396;10.696;2023-06-14T02:02:19;14.60;91.90
29551;DHT22;16488;52.396;10.696;2023-06-14T02:04:44;14.50;92.00
29551;DHT22;16488;52.396;10.696;2023-06-14T02:07:13;14.50;92.00
29551;DHT22;16488;52.396;10.696;2023-06-14T02:09:38;14.30;92.10
29551;DHT22;16488;52.396;10.696;2023-06-14T02:12:04;14.30;92.50
29551;DHT22;16488;52.396;10.696;2023-06-14T02:14:30;14.30;92.20
29551;DHT22;16488;52.396;10.696;2023-06-14T02:16:56;14.30;92.30
29551;DHT22;16488;52.396;10.696;2023-06-14T02:19:21;14.30;92.50
29551;DHT22;16488;52.396;10.696;2023-06-14T02:21:47;14.30;92.40
29551;DHT22;16488;52.396;10.696;2023-06-14T02:24:13;14.30;92.50
29551;DHT22;16488;52.396;10.696;2023-06-14T02:26:39;14.20;92.70
29551;DHT22;16488;52.396;10.696;2023-06-14T02:29:07;14.20;92.80
29551;DHT22;16488;52.396;10.696;2023-06-14T02:31:35;14.10;92.90
29551;DHT22;16488;52.396;10.696;2023-06-14T02:34:01;14.10;93.20
29551;DHT22;16488;52.396;10.696;2023-06-14T02:36:26;14.10;93.20
29551;DHT22;16488;52.396;10.696;2023-06-14T02:38:52;14.00;93.50
29551;DHT22;16488;52.396;10.696;2023-06-14T02:41:19;14.00;93.50
29551;DHT22;16488;52.396;10.696;2023-06-14T02:43:45;14.00;93.60
29551;DHT22;16488;52.396;10.696;2023-06-14T02:46:11;13.90;93.60
29551;DHT22;16488;52.396;10.696;2023-06-14T02:48:36;13.80;93.90
29551;DHT22;16488;52.396;10.696;2023-06-14T02:51:02;13.80;94.10
29551;DHT22;16488;52.396;10.696;2023-06-14T02:53:28;13.80;94.20
29551;DHT22;16488;52.396;10.696;2023-06-14T02:55:53;13.80;94.10
29551;DHT22;16488;52.396;10.696;2023-06-14T02:58:21;13.90;94.10
29551;DHT22;16488;52.396;10.696;2023-06-14T03:00:46;13.80;94.10
29551;DHT22;16488;52.396;10.696;2023-06-14T03:03:12;13.80;94.50
29551;DHT22;16488;52.396;10.696;2023-06-14T03:05:46;13.80;94.50
29551;DHT22;16488;52.396;10.696;2023-06-14T03:08:13;13.80;94.70
29551;DHT22;16488;52.396;10.696;2023-06-14T03:10:45;13.70;94.80
29551;DHT22;16488;52.396;10.696;2023-06-14T03:13:12;13.70;95.00
29551;DHT22;16488;52.396;10.696;2023-06-14T03:15:37;13.70;95.20
29551;DHT22;16488;52.396;10.696;2023-06-14T03:18:04;13.70;95.20
29551;DHT22;16488;52.396;10.696;2023-06-14T03:20:30;13.60;95.10
29551;DHT22;16488;52.396;10.696;2023-06-14T03:23:01;13.60;95.30
29551;DHT22;16488;52.396;10.696;2023-06-14T03:25:28;13.60;95.40
29551;DHT22;16488;52.396;10.696;2023-06-14T03:27:57;13.60;95.50
29551;DHT22;16488;52.396;10.696;2023-06-14T03:30:23;13.60;95.70
29551;DHT22;16488;52.396;10.696;2023-06-14T03:32:49;13.60;95.90
29551;DHT22;16488;52.396;10.696;2023-06-14T03:35:14;13.50;95.90
29551;DHT22;16488;52.396;10.696;2023-06-14T03:37:44;13.50;96.00
29551;DHT22;16488;52.396;10.696;2023-06-14T03:40:11;13.50;96.20
29551;DHT22;16488;52.396;10.696;2023-06-14T03:42:36;13.60;96.30
29551;DHT22;16488;52.396;10.696;2023-06-14T03:45:02;13.50;96.40
29551;DHT22;16488;52.396;10.696;2023-06-14T03:47:28;13.50;96.60
29551;DHT22;16488;52.396;10.696;2023-06-14T03:49:54;13.50;96.80
29551;DHT22;16488;52.396;10.696;2023-06-14T03:52:19;13.50;96.80
29551;DHT22;16488;52.396;10.696;2023-06-14T03:54:46;13.50;96.90
29551;DHT22;16488;52.396;10.696;2023-06-14T03:57:12;13.60;97.00
29551;DHT22;16488;52.396;10.696;2023-06-14T03:59:37;13.60;97.10
29551;DHT22;16488;52.396;10.696;2023-06-14T04:02:03;13.60;97.00
29551;DHT22;16488;52.396;10.696;2023-06-14T04:04:29;13.70;97.20
29551;DHT22;16488;52.396;10.696;2023-06-14T04:06:55;13.70;97.50
29551;DHT22;16488;52.396;10.696;2023-06-14T04:09:23;13.60;97.40
29551;DHT22;16488;52.396;10.696;2023-06-14T04:11:51;13.70;97.30
29551;DHT22;16488;52.396;10.696;2023-06-14T04:14:17;13.80;97.20
29551;DHT22;16488;52.396;10.696;2023-06-14T04:16:43;13.80;97.10
29551;DHT22;16488;52.396;10.696;2023-06-14T04:19:08;13.90;97.30
29551;DHT22;16488;52.396;10.696;2023-06-14T04:21:34;13.90;97.30
29551;DHT22;16488;52.396;10.696;2023-06-14T04:24:00;13.90;97.50
29551;DHT22;16488;52.396;10.696;2023-06-14T04:26:27;13.90;97.70
29551;DHT22;16488;52.396;10.696;2023-06-14T04:28:55;13.90;97.60
29551;DHT22;16488;52.396;10.696;2023-06-14T04:31:22;13.90;97.80
29551;DHT22;16488;52.396;10.696;2023-06-14T04:33:50;13.90;97.80
29551;DHT22;16488;52.396;10.696;2023-06-14T04:36:16;13.90;98.00
29551;DHT22;16488;52.396;10.696;2023-06-14T04:38:43;13.90;98.20
29551;DHT22;16488;52.396;10.696;2023-06-14T04:41:10;14.00;98.10
29551;DHT22;16488;52.396;10.696;2023-06-14T04:43:37;14.10;98.10
29551;DHT22;16488;52.396;10.696;2023-06-14T04:46:06;14.10;97.80
29551;DHT22;16488;52.396;10.696;2023-06-14T04:48:37;14.20;97.70
29551;DHT22;16488;52.396;10.696;2023-06-14T04:51:05;14.30;97.50
29551;DHT22;16488;52.396;10.696;2023-06-14T04:53:31;14.40;97.20
29551;DHT22;16488;52.396;10.696;2023-06-14T04:55:56;14.50;97.30
29551;DHT22;16488;52.396;10.696;2023-06-14T04:58:22;14.50;97.00
29551;DHT22;16488;52.396;10.696;2023-06-14T05:00:47;14.60;97.00
29551;DHT22;16488;52.396;10.696;2023-06-14T05:03:13;14.60;96.80
29551;DHT22;16488;52.396;10.696;2023-06-14T05:05:40;14.70;97.20
29551;DHT22;16488;52.396;10.696;2023-06-14T05:08:06;14.70;96.90
29551;DHT22;16488;52.396;10.696;2023-06-14T05:10:32;14.70;97.30
29551;DHT22;16488;52.396;10.696;2023-06-14T05:13:00;14.80;97.10
29551;DHT22;16488;52.396;10.696;2023-06-14T05:15:25;14.70;96.90
29551;DHT22;16488;52.396;10.696;2023-06-14T05:17:52;14.80;97.40
29551;DHT22;16488;52.396;10.696;2023-06-14T05:20:24;14.90;97.30
29551;DHT22;16488;52.396;10.696;2023-06-14T05:22:53;14.90;97.40
29551;DHT22;16488;52.396;10.696;2023-06-14T05:25:21;14.90;97.60
29551;DHT22;16488;52.396;10.696;2023-06-14T05:27:48;14.90;97.60
29551;DHT22;16488;52.396;10.696;2023-06-14T05:30:14;14.90;97.70
29551;DHT22;16488;52.396;10.696;2023-06-14T05:32:40;14.90;97.60
29551;DHT22;16488;52.396;10.696;2023-06-14T05:35:06;15.00;97.70
29551;DHT22;16488;52.396;10.696;2023-06-14T05:37:32;15.00;97.80
29551;DHT22;16488;52.396;10.696;2023-06-14T05:39:57;15.10;97.90
29551;DHT22;16488;52.396;10.696;2023-06-14T05:42:23;15.10;98.00
29551;DHT22;16488;52.396;10.696;2023-06-14T05:44:49;15.10;97.70
29551;DHT22;16488;52.396;10.696;2023-06-14T05:47:14;15.30;97.50
29551;DHT22;16488;52.396;10.696;2023-06-14T05:49:40;15.30;97.20
29551;DHT22;16488;52.396;10.696;2023-06-14T05:52:06;15.40;97.30
29551;DHT22;16488;52.396;10.696;2023-06-14T05:54:32;15.50;97.70
29551;DHT22;16488;52.396;10.696;2023-06-14T05:56:58;15.50;97.90
29551;DHT22;16488;52.396;10.696;2023-06-14T05:59:29;15.60;97.80
29551;DHT22;16488;52.396;10.696;2023-06-14T06:01:55;15.60;97.70
29551;DHT22;16488;52.396;10.696;2023-06-14T06:04:20;15.60;97.60
29551;DHT22;16488;52.396;10.696;2023-06-14T06:06:46;15.70;97.10
29551;DHT22;16488;52.396;10.696;2023-06-14T06:09:13;15.90;97.00
29551;DHT22;16488;52.396;10.696;2023-06-14T06:11:40;15.90;96.90
29551;DHT22;16488;52.396;10.696;2023-06-14T06:14:06;15.90;96.90
29551;DHT22;16488;52.396;10.696;2023-06-14T06:16:31;16.00;96.80
29551;DHT22;16488;52.396;10.696;2023-06-14T06:18:58;16.10;97.00
29551;DHT22;16488;52.396;10.696;2023-06-14T06:21:23;16.20;96.20
29551;DHT22;16488;52.396;10.696;2023-06-14T06:23:49;16.20;96.10
29551;DHT22;16488;52.396;10.696;2023-06-14T06:26:14;16.20;95.90
29551;DHT22;16488;52.396;10.696;2023-06-14T06:28:40;16.20;95.40
29551;DHT22;16488;52.396;10.696;2023-06-14T06:31:06;16.20;95.20
29551;DHT22;16488;52.396;10.696;2023-06-14T06:33:31;16.30;95.70
29551;DHT22;16488;52.396;10.696;2023-06-14T06:35:57;16.40;95.50
29551;DHT22;16488;52.396;10.696;2023-06-14T06:38:23;16.50;95.90
29551;DHT22;16488;52.396;10.696;2023-06-14T06:40:48;16.60;95.10
29551;DHT22;16488;52.396;10.696;2023-06-14T06:43:14;16.60;94.50
29551;DHT22;16488;52.396;10.696;2023-06-14T06:45:42;16.70;94.40
29551;DHT22;16488;52.396;10.696;2023-06-14T06:48:07;16.70;95.00
29551;DHT22;16488;52.396;10.696;2023-06-14T06:50:36;16.80;94.20
29551;DHT22;16488;52.396;10.696;2023-06-14T06:53:01;16.90;94.10
29551;DHT22;16488;52.396;10.696;2023-06-14T06:55:27;16.90;93.80
29551;DHT22;16488;52.396;10.696;2023-06-14T06:57:53;17.00;93.30
29551;DHT22;16488;52.396;10.696;2023-06-14T07:00:19;17.00;93.70
29551;DHT22;16488;52.396;10.696;2023-06-14T07:02:45;17.10;93.30
29551;DHT22;16488;52.396;10.696;2023-06-14T07:05:11;17.10;94.00
29551;DHT22;16488;52.396;10.696;2023-06-14T07:07:37;17.20;94.00
29551;DHT22;16488;52.396;10.696;2023-06-14T07:10:03;17.30;94.30
29551;DHT22;16488;52.396;10.696;2023-06-14T07:12:31;17.40;93.60
29551;DHT22;16488;52.396;10.696;2023-06-14T07:14:59;17.40;92.70
29551;DHT22;16488;52.396;10.696;2023-06-14T07:17:24;17.40;92.60
29551;DHT22;16488;52.396;10.696;2023-06-14T07:19:50;17.40;92.50
29551;DHT22;16488;52.396;10.696;2023-06-14T07:22:16;17.50;93.30
29551;DHT22;16488;52.396;10.696;2023-06-14T07:24:43;17.60;93.30
29551;DHT22;16488;52.396;10.696;2023-06-14T07:27:08;17.70;92.20
29551;DHT22;16488;52.396;10.696;2023-06-14T07:29:34;17.70;91.90
29551;DHT22;16488;52.396;10.696;2023-06-14T07:32:00;17.80;92.30
29551;DHT22;16488;52.396;10.696;2023-06-14T07:34:25;17.90;92.00
29551;DHT22;16488;52.396;10.696;2023-06-14T07:36:52;17.90;92.10
29551;DHT22;16488;52.396;10.696;2023-06-14T07:39:19;18.00;92.10
29551;DHT22;16488;52.396;10.696;2023-06-14T07:41:45;18.10;90.80
29551;DHT22;16488;52.396;10.696;2023-06-14T07:44:10;18.10;90.50
29551;DHT22;16488;52.396;10.696;2023-06-14T07:46:37;18.10;90.80
29551;DHT22;16488;52.396;10.696;2023-06-14T07:49:03;18.20;91.40
29551;DHT22;16488;52.396;10.696;2023-06-14T07:51:29;18.30;90.50
29551;DHT22;16488;52.396;10.696;2023-06-14T07:53:54;18.30;90.30
29551;DHT22;16488;52.396;10.696;2023-06-14T07:56:21;18.40;90.30
29551;DHT22;16488;52.396;10.696;2023-06-14T07:58:47;18.50;90.20
29551;DHT22;16488;52.396;10.696;2023-06-14T08:01:12;18.60;89.90
29551;DHT22;16488;52.396;10.696;2023-06-14T08:03:39;18.60;88.60
29551;DHT22;16488;52.396;10.696;2023-06-14T08:06:05;18.60;88.90
29551;DHT22;16488;52.396;10.696;2023-06-14T08:08:31;18.70;88.50
29551;DHT22;16488;52.396;10.696;2023-06-14T08:10:57;18.70;87.70
29551;DHT22;16488;52.396;10.696;2023-06-14T08:13:22;18.70;88.10
29551;DHT22;16488;52.396;10.696;2023-06-14T08:15:48;18.80;89.00
29551;DHT22;16488;52.396;10.696;2023-06-14T08:18:14;18.90;87.50
29551;DHT22;16488;52.396;10.696;2023-06-14T08:20:40;18.80;87.00
29551;DHT22;16488;52.396;10.696;2023-06-14T08:23:05;18.90;87.70
29551;DHT22;16488;52.396;10.696;2023-06-14T08:25:31;18.90;86.20
29551;DHT22;16488;52.396;10.696;2023-06-14T08:27:57;19.00;86.50
29551;DHT22;16488;52.396;10.696;2023-06-14T08:30:22;19.10;87.30
29551;DHT22;16488;52.396;10.696;2023-06-14T08:32:48;19.30;88.20
29551;DHT22;16488;52.396;10.696;2023-06-14T08:35:13;19.40;85.00
29551;DHT22;16488;52.396;10.696;2023-06-14T08:37:42;19.50;86.30
29551;DHT22;16488;52.396;10.696;2023-06-14T08:42:54;19.70;84.20
29551;DHT22;16488;52.396;10.696;2023-06-14T08:45:24;19.70;82.60
29551;DHT22;16488;52.396;10.696;2023-06-14T08:47:50;19.80;83.10
29551;DHT22;16488;52.396;10.696;2023-06-14T08:50:20;19.70;81.60
29551;DHT22;16488;52.396;10.696;2023-06-14T08:52:48;19.80;82.80
29551;DHT22;16488;52.396;10.696;2023-06-14T08:55:18;19.90;84.00
29551;DHT22;16488;52.396;10.696;2023-06-14T08:57:46;20.10;83.90
29551;DHT22;16488;52.396;10.696;2023-06-14T09:00:12;20.30;83.30
29551;DHT22;16488;52.396;10.696;2023-06-14T09:02:39;20.40;82.50
29551;DHT22;16488;52.396;10.696;2023-06-14T09:05:12;20.50;80.70
29551;DHT22;16488;52.396;10.696;2023-06-14T09:07:43;20.60;80.50
29551;DHT22;16488;52.396;10.696;2023-06-14T09:10:11;20.70;80.70
29551;DHT22;16488;52.396;10.696;2023-06-14T09:12:37;20.80;78.50
29551;DHT22;16488;52.396;10.696;2023-06-14T09:15:04;20.80;77.70
29551;DHT22;16488;52.396;10.696;2023-06-14T09:17:38;20.70;76.50
29551;DHT22;16488;52.396;10.696;2023-06-14T09:20:08;20.80;77.20
29551;DHT22;16488;52.396;10.696;2023-06-14T09:22:39;20.80;76.60
29551;DHT22;16488;52.396;10.696;2023-06-14T09:25:05;20.80;76.90
29551;DHT22;16488;52.396;10.696;2023-06-14T09:27:32;20.90;79.30
29551;DHT22;16488;52.396;10.696;2023-06-14T09:29:58;20.80;75.40
29551;DHT22;16488;52.396;10.696;2023-06-14T09:32:24;20.90;75.20
29551;DHT22;16488;52.396;10.696;2023-06-14T09:34:50;21.10;79.00
29551;DHT22;16488;52.396;10.696;2023-06-14T09:37:32;21.20;76.80
29551;DHT22;16488;52.396;10.696;2023-06-14T09:39:58;21.30;75.50
29551;DHT22;16488;52.396;10.696;2023-06-14T09:42:24;21.30;76.40
29551;DHT22;16488;52.396;10.696;2023-06-14T09:44:54;21.40;76.70
29551;DHT22;16488;52.396;10.696;2023-06-14T09:47:21;21.50;77.20
29551;DHT22;16488;52.396;10.696;2023-06-14T09:49:48;21.70;76.10
29551;DHT22;16488;52.396;10.696;2023-06-14T09:52:18;21.70;75.00
29551;DHT22;16488;52.396;10.696;2023-06-14T09:54:46;21.70;74.90
29551;DHT22;16488;52.396;10.696;2023-06-14T09:57:16;21.60;74.70
29551;DHT22;16488;52.396;10.696;2023-06-14T09:59:44;21.60;76.70
29551;DHT22;16488;52.396;10.696;2023-06-14T10:02:22;21.50;75.60
29551;DHT22;16488;52.396;10.696;2023-06-14T10:05:07;21.40;75.60
29551;DHT22;16488;52.396;10.696;2023-06-14T10:08:00;21.40;76.00
29551;DHT22;16488;52.396;10.696;2023-06-14T10:10:28;21.30;76.30
29551;DHT22;16488;52.396;10.696;2023-06-14T10:12:54;21.10;77.10
29551;DHT22;16488;52.396;10.696;2023-06-14T10:23:40;21.10;77.80
29551;DHT22;16488;52.396;10.696;2023-06-14T10:26:07;21.10;78.30
29551;DHT22;16488;52.396;10.696;2023-06-14T10:28:37;21.10;78.00
29551;DHT22;16488;52.396;10.696;2023-06-14T10:31:12;21.20;78.70
29551;DHT22;16488;52.396;10.696;2023-06-14T10:33:56;21.30;79.60
29551;DHT22;16488;52.396;10.696;2023-06-14T10:39:05;21.40;79.10
29551;DHT22;16488;52.396;10.696;2023-06-14T10:41:35;21.60;77.70
29551;DHT22;16488;52.396;10.696;2023-06-14T10:44:31;21.80;77.20
29551;DHT22;16488;52.396;10.696;2023-06-14T10:47:00;22.00;77.40
29551;DHT22;16488;52.396;10.696;2023-06-14T10:49:45;22.10;77.10
29551;DHT22;16488;52.396;10.696;2023-06-14T10:52:15;22.20;77.50
29551;DHT22;16488;52.396;10.696;2023-06-14T10:55:16;22.30;77.80
29551;DHT22;16488;52.396;10.696;2023-06-14T10:57:52;22.40;77.30
29551;DHT22;16488;52.396;10.696;2023-06-14T11:00:22;22.40;74.70
29551;DHT22;16488;52.396;10.696;2023-06-14T11:05:50;22.30;75.00
29551;DHT22;16488;52.396;10.696;2023-06-14T11:11:06;22.30;75.70
29551;DHT22;16488;52.396;10.696;2023-06-14T11:13:32;22.20;75.60
29551;DHT22;16488;52.396;10.696;2023-06-14T11:15:58;22.00;76.20
29551;DHT22;16488;52.396;10.696;2023-06-14T11:18:24;21.80;76.20
29551;DHT22;16488;52.396;10.696;2023-06-14T11:20:50;21.60;77.10
29551;DHT22;16488;52.396;10.696;2023-06-14T11:23:16;21.60;76.60
29551;DHT22;16488;52.396;10.696;2023-06-14T11:25:42;21.60;76.30
29551;DHT22;16488;52.396;10.696;2023-06-14T11:28:08;21.60;75.90
29551;DHT22;16488;52.396;10.696;2023-06-14T11:30:34;21.60;75.90
29551;DHT22;16488;52.396;10.696;2023-06-14T11:32:59;21.50;76.40
29551;DHT22;16488;52.396;10.696;2023-06-14T11:35:26;21.50;78.10
29551;DHT22;16488;52.396;10.696;2023-06-14T11:37:55;21.60;76.60
29551;DHT22;16488;52.396;10.696;2023-06-14T11:40:24;21.80;76.40
29551;DHT22;16488;52.396;10.696;2023-06-14T11:42:54;22.10;76.30
29551;DHT22;16488;52.396;10.696;2023-06-14T11:45:23;22.40;73.40
29551;DHT22;16488;52.396;10.696;2023-06-14T11:47:48;22.40;72.10
29551;DHT22;16488;52.396;10.696;2023-06-14T11:50:14;22.30;71.80
29551;DHT22;16488;52.396;10.696;2023-06-14T11:52:39;22.30;73.10
29551;DHT22;16488;52.396;10.696;2023-06-14T11:55:06;22.20;73.70
29551;DHT22;16488;52.396;10.696;2023-06-14T11:57:34;22.10;73.50
29551;DHT22;16488;52.396;10.696;2023-06-14T12:00:04;22.30;73.00
29551;DHT22;16488;52.396;10.696;2023-06-14T12:02:40;22.50;75.70
29551;DHT22;16488;52.396;10.696;2023-06-14T12:05:07;22.60;73.00
29551;DHT22;16488;52.396;10.696;2023-06-14T12:07:37;22.50;71.70
29551;DHT22;16488;52.396;10.696;2023-06-14T12:10:06;22.40;71.40
29551;DHT22;16488;52.396;10.696;2023-06-14T12:12:39;22.30;73.10
29551;DHT22;16488;52.396;10.696;2023-06-14T12:15:06;22.10;72.50
29551;DHT22;16488;52.396;10.696;2023-06-14T12:17:36;22.00;72.70
29551;DHT22;16488;52.396;10.696;2023-06-14T12:22:36;22.00;75.40
29551;DHT22;16488;52.396;10.696;2023-06-14T12:25:02;22.00;72.50
29551;DHT22;16488;52.396;10.696;2023-06-14T12:27:28;22.00;74.80
29551;DHT22;16488;52.396;10.696;2023-06-14T12:30:01;22.10;75.10
29551;DHT22;16488;52.396;10.696;2023-06-14T12:32:28;22.20;72.30
29551;DHT22;16488;52.396;10.696;2023-06-14T12:34:53;22.20;72.90
29551;DHT22;16488;52.396;10.696;2023-06-14T12:37:19;22.20;71.90
29551;DHT22;16488;52.396;10.696;2023-06-14T12:39:45;22.10;72.30
29551;DHT22;16488;52.396;10.696;2023-06-14T12:42:11;22.10;72.40
29551;DHT22;16488;52.396;10.696;2023-06-14T12:44:36;22.10;72.50
29551;DHT22;16488;52.396;10.696;2023-06-14T12:47:06;22.10;73.40
29551;DHT22;16488;52.396;10.696;2023-06-14T12:49:33;22.30;73.30
29551;DHT22;16488;52.396;10.696;2023-06-14T12:51:59;22.50;71.70
29551;DHT22;16488;52.396;10.696;2023-06-14T12:54:24;22.80;72.50
29551;DHT22;16488;52.396;10.696;2023-06-14T12:56:53;22.90;70.20
29551;DHT22;16488;52.396;10.696;2023-06-14T12:59:20;23.10;70.50
29551;DHT22;16488;52.396;10.696;2023-06-14T13:01:46;23.20;69.20
29551;DHT22;16488;52.396;10.696;2023-06-14T13:04:14;23.40;68.00
29551;DHT22;16488;52.396;10.696;2023-06-14T13:06:40;23.70;67.30
29551;DHT22;16488;52.396;10.696;2023-06-14T13:09:06;23.80;67.10
29551;DHT22;16488;52.396;10.696;2023-06-14T13:11:31;23.70;68.20
29551;DHT22;16488;52.396;10.696;2023-06-14T13:13:57;23.60;67.50
29551;DHT22;16488;52.396;10.696;2023-06-14T13:16:23;23.50;69.40
29551;DHT22;16488;52.396;10.696;2023-06-14T13:18:48;23.40;68.20
29551;DHT22;16488;52.396;10.696;2023-06-14T13:21:14;23.30;68.10
29551;DHT22;16488;52.396;10.696;2023-06-14T13:23:40;23.20;67.40
29551;DHT22;16488;52.396;10.696;2023-06-14T13:26:05;23.00;67.80
29551;DHT22;16488;52.396;10.696;2023-06-14T13:28:31;22.90;67.10
29551;DHT22;16488;52.396;10.696;2023-06-14T13:30:57;22.90;69.30
29551;DHT22;16488;52.396;10.696;2023-06-14T13:33:23;22.80;67.40
29551;DHT22;16488;52.396;10.696;2023-06-14T13:35:49;22.70;67.40
29551;DHT22;16488;52.396;10.696;2023-06-14T13:38:17;22.70;69.20
29551;DHT22;16488;52.396;10.696;2023-06-14T13:40:42;22.70;68.20
29551;DHT22;16488;52.396;10.696;2023-06-14T13:43:08;22.70;67.40
29551;DHT22;16488;52.396;10.696;2023-06-14T13:45:34;22.70;68.30
29551;DHT22;16488;52.396;10.696;2023-06-14T13:48:00;22.70;68.90
29551;DHT22;16488;52.396;10.696;2023-06-14T13:50:26;22.70;68.60
29551;DHT22;16488;52.396;10.696;2023-06-14T13:52:51;22.70;66.30
29551;DHT22;16488;52.396;10.696;2023-06-14T13:55:17;22.90;66.60
29551;DHT22;16488;52.396;10.696;2023-06-14T13:57:42;23.30;67.50
29551;DHT22;16488;52.396;10.696;2023-06-14T14:00:09;23.60;66.90
29551;DHT22;16488;52.396;10.696;2023-06-14T14:02:34;23.70;65.50
29551;DHT22;16488;52.396;10.696;2023-06-14T14:05:00;23.70;68.00
29551;DHT22;16488;52.396;10.696;2023-06-14T14:07:25;23.60;65.40
29551;DHT22;16488;52.396;10.696;2023-06-14T14:09:51;23.40;65.00
29551;DHT22;16488;52.396;10.696;2023-06-14T14:12:18;23.20;64.30
29551;DHT22;16488;52.396;10.696;2023-06-14T14:14:44;23.20;67.60
29551;DHT22;16488;52.396;10.696;2023-06-14T14:17:10;23.10;67.40
29551;DHT22;16488;52.396;10.696;2023-06-14T14:19:35;23.30;68.40
29551;DHT22;16488;52.396;10.696;2023-06-14T14:22:01;23.50;66.40
29551;DHT22;16488;52.396;10.696;2023-06-14T14:24:27;23.70;64.10
29551;DHT22;16488;52.396;10.696;2023-06-14T14:26:53;23.90;61.00
29551;DHT22;16488;52.396;10.696;2023-06-14T14:29:19;23.90;59.00
29551;DHT22;16488;52.396;10.696;2023-06-14T14:31:46;23.90;60.00
29551;DHT22;16488;52.396;10.696;2023-06-14T14:34:12;24.00;60.20
29551;DHT22;16488;52.396;10.696;2023-06-14T14:36:37;23.90;59.90
29551;DHT22;16488;52.396;10.696;2023-06-14T14:39:08;23.90;63.60
29551;DHT22;16488;52.396;10.696;2023-06-14T14:41:33;23.90;62.20
29551;DHT22;16488;52.396;10.696;2023-06-14T14:43:59;23.80;61.10
29551;DHT22;16488;52.396;10.696;2023-06-14T14:46:26;23.70;64.70
29551;DHT22;16488;52.396;10.696;2023-06-14T14:48:52;23.60;62.80
29551;DHT22;16488;52.396;10.696;2023-06-14T14:51:18;23.50;62.60
29551;DHT22;16488;52.396;10.696;2023-06-14T14:53:44;23.30;65.60
29551;DHT22;16488;52.396;10.696;2023-06-14T14:56:10;23.20;66.90
29551;DHT22;16488;52.396;10.696;2023-06-14T14:58:37;23.10;64.50
29551;DHT22;16488;52.396;10.696;2023-06-14T15:01:03;23.10;64.40
29551;DHT22;16488;52.396;10.696;2023-06-14T15:03:31;23.20;63.70
29551;DHT22;16488;52.396;10.696;2023-06-14T15:05:56;23.40;63.80
29551;DHT22;16488;52.396;10.696;2023-06-14T15:08:22;23.50;62.10
29551;DHT22;16488;52.396;10.696;2023-06-14T15:10:47;23.40;62.20
29551;DHT22;16488;52.396;10.696;2023-06-14T15:13:13;23.30;62.70
29551;DHT22;16488;52.396;10.696;2023-06-14T15:15:39;23.20;62.10
29551;DHT22;16488;52.396;10.696;2023-06-14T15:18:05;23.20;62.60
29551;DHT22;16488;52.396;10.696;2023-06-14T15:20:30;23.10;63.30
29551;DHT22;16488;52.396;10.696;2023-06-14T15:22:56;23.10;65.80
29551;DHT22;16488;52.396;10.696;2023-06-14T15:25:26;23.00;63.90
29551;DHT22;16488;52.396;10.696;2023-06-14T15:27:51;23.00;66.20
29551;DHT22;16488;52.396;10.696;2023-06-14T15:30:17;22.90;65.10
29551;DHT22;16488;52.396;10.696;2023-06-14T15:32:43;22.90;63.40
29551;DHT22;16488;52.396;10.696;2023-06-14T15:35:08;22.80;63.70
29551;DHT22;16488;52.396;10.696;2023-06-14T15:37:34;22.80;64.10
29551;DHT22;16488;52.396;10.696;2023-06-14T15:39:59;22.70;64.20